createdAt,value
2019-05-13T00:00:37.605Z,66.90
2019-05-13T00:03:10.415Z,65.40
2019-05-13T00:05:44.440Z,65.80
2019-05-13T00:08:17.538Z,64.90
2019-05-13T00:10:50.355Z,65.00
2019-05-13T00:13:23.715Z,63.90
2019-05-13T00:15:56.694Z,64.50
2019-05-13T00:18:29.552Z,64.30
2019-05-13T00:21:03.678Z,64.90
2019-05-13T00:23:36.729Z,64.50
2019-05-13T00:26:09.702Z,65.00
2019-05-13T00:28:44.362Z,64.50
2019-05-13T00:31:17.221Z,64.20
2019-05-13T00:33:50.030Z,63.60
2019-05-13T00:36:24.272Z,63.40
2019-05-13T00:38:57.264Z,61.20
2019-05-13T00:41:30.097Z,63.00
2019-05-13T00:44:03.927Z,63.70
2019-05-13T00:46:37.011Z,63.70
2019-05-13T00:49:13.278Z,64.10
2019-05-13T00:51:45.680Z,64.00
2019-05-13T00:54:18.480Z,64.80
2019-05-13T00:56:51.299Z,65.30
2019-05-13T00:59:24.346Z,64.30
2019-05-13T01:01:57.323Z,64.70
2019-05-13T01:04:30.121Z,64.60
2019-05-13T01:07:04.333Z,65.00
2019-05-13T01:09:37.422Z,64.80
2019-05-13T01:12:10.218Z,65.30
2019-05-13T01:14:43.540Z,65.90
2019-05-13T01:17:16.375Z,65.50
2019-05-13T01:19:49.278Z,66.50
2019-05-13T01:22:23.919Z,66.40
2019-05-13T01:24:56.806Z,67.10
2019-05-13T01:27:29.621Z,66.50
2019-05-13T01:30:04.108Z,67.00
2019-05-13T01:32:37.076Z,66.90
2019-05-13T01:35:10.078Z,66.40
2019-05-13T01:37:46.104Z,66.80
2019-05-13T01:40:18.740Z,66.50
2019-05-13T01:42:51.538Z,66.50
2019-05-13T01:45:24.363Z,65.90
2019-05-13T01:47:57.198Z,66.10
2019-05-13T01:50:29.980Z,66.70
2019-05-13T01:53:04.557Z,66.50
2019-05-13T01:55:37.495Z,66.70
2019-05-13T01:58:10.310Z,66.10
2019-05-13T02:00:44.277Z,66.90
2019-05-13T02:03:17.525Z,66.50
2019-05-13T02:05:50.330Z,67.00
2019-05-13T02:08:24.523Z,66.50
2019-05-13T02:10:57.747Z,66.50
2019-05-13T02:13:30.600Z,65.70
2019-05-13T02:16:04.561Z,65.70
2019-05-13T02:18:37.488Z,65.20
2019-05-13T02:21:10.289Z,64.70
2019-05-13T02:23:44.306Z,64.00
2019-05-13T02:26:17.231Z,64.50
2019-05-13T02:28:50.032Z,64.90
2019-05-13T02:31:39.542Z,64.10
2019-05-13T02:33:58.664Z,65.00
2019-05-13T02:36:33.198Z,65.40
2019-05-13T02:39:06.784Z,65.50
2019-05-13T02:41:42.882Z,66.30
2019-05-13T02:44:14.416Z,67.30
2019-05-13T02:46:47.230Z,66.10
2019-05-13T02:49:22.903Z,66.30
2019-05-13T02:51:55.061Z,66.80
2019-05-13T02:54:27.941Z,67.10
2019-05-13T02:57:03.702Z,66.30
2019-05-13T02:59:35.495Z,67.00
2019-05-13T03:02:08.348Z,66.90
2019-05-13T03:04:43.342Z,66.30
2019-05-13T03:07:15.821Z,66.20
2019-05-13T03:09:48.624Z,66.50
2019-05-13T03:12:23.015Z,66.80
2019-05-13T03:14:56.199Z,67.50
2019-05-13T03:17:35.132Z,67.90
2019-05-13T03:20:13.035Z,68.00
2019-05-13T03:22:43.490Z,68.50
2019-05-13T03:25:16.405Z,68.40
2019-05-13T03:27:53.046Z,68.30
2019-05-13T03:30:26.134Z,68.50
2019-05-13T03:33:04.125Z,68.40
2019-05-13T03:35:36.512Z,68.70
2019-05-13T03:38:12.513Z,68.80
2019-05-13T03:40:46.525Z,68.50
2019-05-13T03:43:23.014Z,68.80
2019-05-13T03:45:58.920Z,68.60
2019-05-13T03:48:34.428Z,69.10
2019-05-13T03:51:07.348Z,68.40
2019-05-13T03:53:43.242Z,67.90
2019-05-13T03:56:15.674Z,67.90
2019-05-13T03:58:48.603Z,68.70
2019-05-13T04:01:22.375Z,67.70
2019-05-13T04:03:55.500Z,67.70
2019-05-13T04:06:28.308Z,66.80
2019-05-13T04:09:20.787Z,67.00
2019-05-13T04:11:36.114Z,66.40
2019-05-13T04:14:12.394Z,65.90
2019-05-13T04:16:44.462Z,65.40
2019-05-13T04:19:18.443Z,65.60
2019-05-13T04:21:52.839Z,65.10
2019-05-13T04:24:25.890Z,64.90
2019-05-13T04:27:02.621Z,64.90
2019-05-13T04:29:33.897Z,65.00
2019-05-13T04:32:06.648Z,63.20
2019-05-13T04:34:41.573Z,61.80
2019-05-13T04:37:14.258Z,61.40
2019-05-13T04:39:54.762Z,59.30
2019-05-13T04:42:23.324Z,57.50
2019-05-13T04:44:56.185Z,55.50
2019-05-13T04:47:29.079Z,53.50
2019-05-13T04:50:03.115Z,53.10
2019-05-13T04:52:36.270Z,51.90
2019-05-13T04:55:09.286Z,51.20
2019-05-13T04:57:42.941Z,51.80
2019-05-13T05:01:02.730Z,50.60
2019-05-13T05:03:45.596Z,49.40
2019-05-13T05:06:42.361Z,49.20
2019-05-13T05:10:30.486Z,48.50
2019-05-13T05:13:12.861Z,48.20
2019-05-13T05:17:03.225Z,46.70
2019-05-13T05:20:16.563Z,45.90
2019-05-13T05:23:23.902Z,47.20
2019-05-13T05:26:55.837Z,45.10
2019-05-13T05:30:43.012Z,45.10
2019-05-13T05:34:12.747Z,43.20
2019-05-13T05:37:36.868Z,43.00
2019-05-13T05:40:12.203Z,42.20
2019-05-13T05:42:48.269Z,41.90
2019-05-13T05:45:21.991Z,43.00
2019-05-13T05:47:58.135Z,43.50
2019-05-13T05:50:34.028Z,42.10
2019-05-13T05:53:11.023Z,40.30
2019-05-13T05:55:45.744Z,42.80
2019-05-13T05:58:22.854Z,44.30
2019-05-13T06:00:57.648Z,42.40
2019-05-13T06:03:35.367Z,42.20
2019-05-13T06:06:08.771Z,42.50
2019-05-13T06:08:42.412Z,43.90
2019-05-13T06:11:16.144Z,43.20
2019-05-13T06:13:52.176Z,44.40
2019-05-13T06:16:23.966Z,44.00
2019-05-13T06:18:56.767Z,43.00
2019-05-13T06:21:31.963Z,43.80
2019-05-13T06:24:04.292Z,41.80
2019-05-13T06:26:37.129Z,41.60
2019-05-13T06:29:11.696Z,41.50
2019-05-13T06:31:44.780Z,41.10
2019-05-13T06:34:17.569Z,40.10
2019-05-13T06:36:52.317Z,39.40
2019-05-13T06:39:25.314Z,40.10
2019-05-13T06:41:58.131Z,39.10
2019-05-13T06:44:31.717Z,39.80
2019-05-13T06:47:04.619Z,40.50
2019-05-13T06:49:37.532Z,39.80
2019-05-13T06:52:12.020Z,41.70
2019-05-13T06:54:44.941Z,41.90
2019-05-13T06:57:17.770Z,42.90
2019-05-13T06:59:52.340Z,41.60
2019-05-13T07:02:25.356Z,40.10
2019-05-13T07:04:58.133Z,40.30
2019-05-13T07:07:31.891Z,39.40
2019-05-13T07:10:05.087Z,38.90
2019-05-13T07:12:37.954Z,40.00
2019-05-13T07:15:11.678Z,39.40
2019-05-13T07:17:44.564Z,37.80
2019-05-13T07:20:17.695Z,37.70
2019-05-13T07:22:53.139Z,36.10
2019-05-13T07:25:25.263Z,37.90
2019-05-13T07:27:58.364Z,38.30
2019-05-13T07:30:42.657Z,36.90
2019-05-13T07:33:15.616Z,36.30
2019-05-13T07:35:48.425Z,35.30
2019-05-13T07:38:22.469Z,35.50
2019-05-13T07:41:02.228Z,36.40
2019-05-13T07:43:35.038Z,35.60
2019-05-13T07:46:07.848Z,36.80
2019-05-13T07:48:41.803Z,36.30
2019-05-13T07:51:14.638Z,37.30
2019-05-13T07:53:47.646Z,36.60
2019-05-13T07:56:21.825Z,36.70
2019-05-13T07:58:54.945Z,38.20
2019-05-13T08:01:27.797Z,38.10
2019-05-13T08:04:02.212Z,37.40
2019-05-13T08:06:35.274Z,37.10
2019-05-13T08:09:09.075Z,37.00
2019-05-13T08:12:00.527Z,36.80
2019-05-13T08:14:16.883Z,36.90
2019-05-13T08:16:51.833Z,36.80
2019-05-13T08:19:24.532Z,35.70
2019-05-13T08:21:57.321Z,35.60
2019-05-13T08:24:31.417Z,37.80
2019-05-13T08:27:04.622Z,36.00
2019-05-13T08:29:37.450Z,38.20
2019-05-13T08:32:11.303Z,36.40
2019-05-13T08:34:44.250Z,35.80
2019-05-13T08:37:17.155Z,36.90
2019-05-13T08:39:52.014Z,33.40
2019-05-13T08:42:24.719Z,35.20
2019-05-13T08:44:57.531Z,36.30
2019-05-13T08:47:31.390Z,35.90
2019-05-13T08:50:04.865Z,36.50
2019-05-13T08:52:37.676Z,35.50
2019-05-13T08:55:15.531Z,35.60
2019-05-13T08:57:46.005Z,36.90
2019-05-13T09:00:46.322Z,33.60
2019-05-13T09:03:21.832Z,37.10
2019-05-13T09:05:54.689Z,36.00
2019-05-13T09:08:27.505Z,35.40
2019-05-13T09:11:01.587Z,36.70
2019-05-13T09:13:35.146Z,36.40
2019-05-13T09:16:07.984Z,35.00
2019-05-13T09:18:42.602Z,37.20
2019-05-13T09:21:15.762Z,35.20
2019-05-13T09:23:48.707Z,34.20
2019-05-13T09:26:22.574Z,35.00
2019-05-13T09:28:55.557Z,36.10
2019-05-13T09:31:28.359Z,35.80
2019-05-13T09:34:01.611Z,34.60
2019-05-13T09:36:34.501Z,35.30
2019-05-13T09:39:07.900Z,32.30
2019-05-13T09:41:44.420Z,38.00
2019-05-13T09:44:16.106Z,33.60
2019-05-13T09:46:51.700Z,37.30
2019-05-13T09:49:24.673Z,36.20
2019-05-13T09:51:57.487Z,35.70
2019-05-13T09:54:32.582Z,34.90
2019-05-13T09:57:05.300Z,34.90
2019-05-13T09:59:38.158Z,35.50
2019-05-13T10:02:12.447Z,36.50
2019-05-13T10:04:45.730Z,35.60
2019-05-13T10:07:18.810Z,33.30
2019-05-13T10:09:52.272Z,32.70
2019-05-13T10:12:25.262Z,34.10
2019-05-13T10:14:58.079Z,34.80
2019-05-13T10:17:31.757Z,33.10
2019-05-13T10:20:06.282Z,35.20
2019-05-13T10:22:42.955Z,29.70
2019-05-13T10:25:22.258Z,30.00
2019-05-13T10:27:54.695Z,35.30
2019-05-13T10:30:27.551Z,34.70
2019-05-13T10:33:02.692Z,34.80
2019-05-13T10:35:42.891Z,30.50
2019-05-13T10:38:15.024Z,33.50
2019-05-13T10:40:48.039Z,33.40
2019-05-13T10:43:30.971Z,34.30
2019-05-13T10:45:55.695Z,33.40
2019-05-13T10:48:28.903Z,33.40
2019-05-13T10:51:02.406Z,28.10
2019-05-13T10:53:35.371Z,29.50
2019-05-13T10:56:08.192Z,30.60
2019-05-13T10:58:42.621Z,30.60
2019-05-13T11:01:15.861Z,27.90
2019-05-13T11:03:48.696Z,28.60
2019-05-13T11:06:22.093Z,28.10
2019-05-13T11:08:54.932Z,29.30
2019-05-13T11:11:28.095Z,30.90
2019-05-13T11:14:10.071Z,29.00
2019-05-13T11:16:35.637Z,27.60
2019-05-13T11:19:08.576Z,26.20
2019-05-13T11:21:44.353Z,27.90
2019-05-13T11:24:17.440Z,31.40
2019-05-13T11:26:53.173Z,29.70
2019-05-13T11:29:26.200Z,29.80
2019-05-13T11:31:59.170Z,28.50
2019-05-13T11:34:32.898Z,24.90
2019-05-13T11:37:06.105Z,27.30
2019-05-13T11:39:38.926Z,27.80
2019-05-13T11:42:13.734Z,24.90
2019-05-13T11:44:46.477Z,23.70
2019-05-13T11:47:19.566Z,22.60
2019-05-13T11:49:52.544Z,24.80
2019-05-13T11:52:25.390Z,28.30
2019-05-13T11:54:58.183Z,26.20
2019-05-13T11:57:31.592Z,26.60
2019-05-13T12:00:08.908Z,23.80
2019-05-13T12:02:42.503Z,25.40
2019-05-13T12:05:17.665Z,28.90
2019-05-13T12:07:53.516Z,23.50
2019-05-13T12:10:25.367Z,25.20
2019-05-13T12:12:58.196Z,20.50
2019-05-13T12:15:45.222Z,22.60
2019-05-13T12:18:05.998Z,27.30
2019-05-13T12:20:42.728Z,24.20
2019-05-13T12:23:14.635Z,21.20
2019-05-13T12:25:47.621Z,25.50
2019-05-13T12:28:20.703Z,18.90
2019-05-13T12:30:53.824Z,24.00
2019-05-13T12:33:26.759Z,25.80
2019-05-13T12:36:01.782Z,22.30
2019-05-13T12:38:34.436Z,26.30
2019-05-13T12:41:07.247Z,30.40
2019-05-13T12:43:42.633Z,25.40
2019-05-13T12:46:14.997Z,25.90
2019-05-13T12:48:48.022Z,23.90
2019-05-13T12:51:22.708Z,23.60
2019-05-13T12:53:55.743Z,23.30
2019-05-13T12:56:28.750Z,24.50
2019-05-13T12:59:02.910Z,24.40
2019-05-13T13:01:36.291Z,20.40
2019-05-13T13:04:11.994Z,22.50
2019-05-13T13:06:45.666Z,23.20
2019-05-13T13:09:20.028Z,23.20
2019-05-13T13:11:54.509Z,22.90
2019-05-13T13:14:36.296Z,26.00
2019-05-13T13:17:04.107Z,27.00
2019-05-13T13:19:37.389Z,25.30
2019-05-13T13:22:13.349Z,25.90
2019-05-13T13:24:51.714Z,25.80
2019-05-13T13:27:28.514Z,28.40
2019-05-13T13:30:02.793Z,25.70
2019-05-13T13:32:33.116Z,25.90
2019-05-13T13:35:05.956Z,25.60
2019-05-13T13:37:38.877Z,27.60
2019-05-13T13:40:12.420Z,26.10
2019-05-13T13:42:45.283Z,26.00
2019-05-13T13:45:18.184Z,25.80
2019-05-13T13:48:02.434Z,28.50
2019-05-13T13:50:25.989Z,24.30
2019-05-13T13:52:58.804Z,26.50
2019-05-13T13:55:32.223Z,28.30
2019-05-13T13:58:05.487Z,31.00
2019-05-13T14:00:50.526Z,28.00
2019-05-13T14:03:13.249Z,30.10
2019-05-13T14:05:47.256Z,27.20
2019-05-13T14:08:21.659Z,25.80
2019-05-13T14:10:54.516Z,23.60
2019-05-13T14:13:27.464Z,23.50
2019-05-13T14:16:01.883Z,26.40
2019-05-13T14:18:34.901Z,24.80
2019-05-13T14:21:07.795Z,25.50
2019-05-13T14:23:42.588Z,24.50
2019-05-13T14:26:15.549Z,25.10
2019-05-13T14:28:48.424Z,23.40
2019-05-13T14:31:22.367Z,25.80
2019-05-13T14:33:55.184Z,26.40
2019-05-13T14:36:28.026Z,29.70
2019-05-13T14:39:02.825Z,25.40
2019-05-13T14:41:36.713Z,25.30
2019-05-13T14:44:12.231Z,27.30
2019-05-13T14:46:47.885Z,27.80
2019-05-13T14:49:19.257Z,27.10
2019-05-13T14:51:55.868Z,28.70
2019-05-13T14:54:26.922Z,28.30
2019-05-13T14:57:02.366Z,27.60
2019-05-13T14:59:34.893Z,28.60
2019-05-13T15:02:08.895Z,27.20
2019-05-13T15:04:42.442Z,26.40
2019-05-13T15:07:15.954Z,25.70
2019-05-13T15:09:51.326Z,28.80
2019-05-13T15:12:23.593Z,27.00
2019-05-13T15:14:56.453Z,27.80
2019-05-13T15:17:29.289Z,29.40
2019-05-13T15:20:02.661Z,29.60
2019-05-13T15:22:35.530Z,28.70
2019-05-13T15:25:08.641Z,30.70
2019-05-13T15:27:42.177Z,31.30
2019-05-13T15:30:17.963Z,27.70
2019-05-13T15:32:52.510Z,28.10
2019-05-13T15:35:25.706Z,29.30
2019-05-13T15:37:58.529Z,28.40
2019-05-13T15:40:32.188Z,30.10
2019-05-13T15:43:05.213Z,29.80
2019-05-13T15:45:38.086Z,31.90
2019-05-13T15:48:11.644Z,31.00
2019-05-13T15:50:44.505Z,31.60
2019-05-13T15:53:21.223Z,29.70
2019-05-13T15:55:53.780Z,25.90
2019-05-13T15:58:38.756Z,28.90
2019-05-13T16:01:02.879Z,30.30
2019-05-13T16:03:36.062Z,27.90
2019-05-13T16:06:09.104Z,30.20
2019-05-13T16:08:43.305Z,28.00
2019-05-13T16:11:16.321Z,26.80
2019-05-13T16:13:51.539Z,31.00
2019-05-13T16:16:24.163Z,31.10
2019-05-13T16:18:56.988Z,29.20
2019-05-13T16:21:31.930Z,28.40
2019-05-13T16:24:04.701Z,27.70
2019-05-13T16:26:37.525Z,28.50
2019-05-13T16:29:12.523Z,27.60
2019-05-13T16:31:45.178Z,31.00
2019-05-13T16:34:18.099Z,29.50
2019-05-13T16:36:53.004Z,28.50
2019-05-13T16:39:26.029Z,28.00
2019-05-13T16:41:58.848Z,27.60
2019-05-13T16:44:31.995Z,28.00
2019-05-13T16:47:05.078Z,27.80
2019-05-13T16:49:38.006Z,28.60
2019-05-13T16:52:11.701Z,28.40
2019-05-13T16:54:44.829Z,27.90
2019-05-13T16:57:17.717Z,28.00
2019-05-13T16:59:51.745Z,28.00
2019-05-13T17:02:24.829Z,29.10
2019-05-13T17:04:57.670Z,28.50
2019-05-13T17:07:31.776Z,29.30
2019-05-13T17:10:05.739Z,28.70
2019-05-13T17:12:38.581Z,29.00
2019-05-13T17:15:12.342Z,29.70
2019-05-13T17:17:45.306Z,29.20
2019-05-13T17:20:18.430Z,30.30
2019-05-13T17:22:51.479Z,29.80
2019-05-13T17:25:24.600Z,29.80
2019-05-13T17:27:57.472Z,31.80
2019-05-13T17:30:31.976Z,29.40
2019-05-13T17:33:04.945Z,30.60
2019-05-13T17:35:37.787Z,30.00
2019-05-13T17:38:11.342Z,30.10
2019-05-13T17:40:49.602Z,30.40
2019-05-13T17:43:21.220Z,30.10
2019-05-13T17:45:53.964Z,32.30
2019-05-13T17:48:29.633Z,30.80
2019-05-13T17:51:01.703Z,32.50
2019-05-13T17:53:34.583Z,30.50
2019-05-13T17:56:07.466Z,32.30
2019-05-13T17:58:42.025Z,32.20
2019-05-13T18:01:15.051Z,32.80
2019-05-13T18:03:48.115Z,33.70
2019-05-13T18:06:20.981Z,33.20
2019-05-13T18:08:53.878Z,34.80
2019-05-13T18:11:26.896Z,34.80
2019-05-13T18:14:01.272Z,35.00
2019-05-13T18:16:34.381Z,34.80
2019-05-13T18:19:07.318Z,34.70
2019-05-13T18:21:42.319Z,34.60
2019-05-13T18:24:14.972Z,34.80
2019-05-13T18:26:48.042Z,35.30
2019-05-13T18:29:22.718Z,35.50
2019-05-13T18:31:55.665Z,35.30
2019-05-13T18:34:28.564Z,35.30
2019-05-13T18:37:02.385Z,35.20
2019-05-13T18:39:35.699Z,35.90
2019-05-13T18:42:08.779Z,36.10
2019-05-13T18:44:42.253Z,37.30
2019-05-13T18:47:15.136Z,37.10
2019-05-13T18:49:48.114Z,37.60
2019-05-13T18:52:22.288Z,37.50
2019-05-13T18:54:55.328Z,38.30
2019-05-13T18:57:28.262Z,38.60
2019-05-13T19:00:02.118Z,39.60
2019-05-13T19:02:35.938Z,38.90
2019-05-13T19:05:09.065Z,40.20
2019-05-13T19:07:42.048Z,41.50
2019-05-13T19:10:16.710Z,40.60
2019-05-13T19:12:49.699Z,40.60
2019-05-13T19:15:22.588Z,41.10
2019-05-13T19:17:55.499Z,41.50
2019-05-13T19:20:28.377Z,43.40
2019-05-13T19:23:01.433Z,45.60
2019-05-13T19:25:34.686Z,48.80
2019-05-13T19:28:07.569Z,50.60
2019-05-13T19:30:41.124Z,51.30
2019-05-13T19:33:14.175Z,49.50
2019-05-13T19:35:47.178Z,49.10
2019-05-13T19:38:21.157Z,46.10
2019-05-13T19:40:54.330Z,45.50
2019-05-13T19:43:27.219Z,45.70
2019-05-13T19:46:01.511Z,43.40
2019-05-13T19:48:36.846Z,42.40
2019-05-13T19:51:09.896Z,41.60
2019-05-13T19:53:44.915Z,42.40
2019-05-13T19:56:17.666Z,42.00
2019-05-13T19:58:50.555Z,43.00
2019-05-13T20:01:23.433Z,42.20
2019-05-13T20:03:56.382Z,43.00
2019-05-13T20:06:29.255Z,42.30
2019-05-13T20:09:04.824Z,43.50
2019-05-13T20:11:37.850Z,44.20
2019-05-13T20:14:12.219Z,45.40
2019-05-13T20:16:45.458Z,45.30
2019-05-13T20:19:18.500Z,44.40
2019-05-13T20:21:51.863Z,43.60
2019-05-13T20:24:24.947Z,44.60
2019-05-13T20:26:57.872Z,44.50
2019-05-13T20:29:30.850Z,44.20
2019-05-13T20:32:03.859Z,44.70
2019-05-13T20:34:36.874Z,46.90
2019-05-13T20:37:12.222Z,47.00
2019-05-13T20:39:44.610Z,47.90
2019-05-13T20:42:17.530Z,48.00
2019-05-13T20:44:51.403Z,47.90
2019-05-13T20:47:24.407Z,47.80
2019-05-13T20:50:01.832Z,47.70
2019-05-13T20:52:32.081Z,48.00
2019-05-13T20:55:05.741Z,47.50
2019-05-13T20:57:38.633Z,47.40
2019-05-13T21:00:11.493Z,48.00
2019-05-13T21:02:44.739Z,47.90
2019-05-13T21:05:17.759Z,48.00
2019-05-13T21:07:51.542Z,47.40
2019-05-13T21:10:25.591Z,47.90
2019-05-13T21:12:58.425Z,48.00
2019-05-13T21:15:31.766Z,48.10
2019-05-13T21:18:04.889Z,48.20
2019-05-13T21:20:37.738Z,48.00
2019-05-13T21:23:11.293Z,47.60
2019-05-13T21:25:44.359Z,47.30
2019-05-13T21:28:17.312Z,46.80
2019-05-13T21:30:51.443Z,47.00
2019-05-13T21:33:24.421Z,47.80
2019-05-13T21:35:57.311Z,47.00
2019-05-13T21:38:32.209Z,46.50
2019-05-13T21:41:04.971Z,46.20
2019-05-13T21:43:37.816Z,46.30
2019-05-13T21:46:12.071Z,46.20
2019-05-13T21:48:45.080Z,45.20
2019-05-13T21:51:17.943Z,45.90
2019-05-13T21:53:51.936Z,45.50
2019-05-13T21:56:24.935Z,46.30
2019-05-13T21:58:57.819Z,46.50
2019-05-13T22:01:32.092Z,47.30
2019-05-13T22:04:05.144Z,47.40
2019-05-13T22:06:38.013Z,48.00
2019-05-13T22:09:11.922Z,48.10
2019-05-13T22:11:44.903Z,48.30
2019-05-13T22:14:17.731Z,47.50
2019-05-13T22:16:51.793Z,48.10
2019-05-13T22:19:24.831Z,47.50
2019-05-13T22:21:57.842Z,47.90
2019-05-13T22:24:31.260Z,48.30
2019-05-13T22:27:04.306Z,48.60
2019-05-13T22:29:37.129Z,47.20
2019-05-13T22:32:11.318Z,47.00
2019-05-13T22:34:44.326Z,46.50
2019-05-13T22:37:17.251Z,46.50
2019-05-13T22:39:50.079Z,46.60
2019-05-13T22:42:23.071Z,46.20
2019-05-13T22:44:55.896Z,46.10
2019-05-13T22:47:31.361Z,45.60
2019-05-13T22:50:04.044Z,46.00
2019-05-13T22:52:36.883Z,46.00
2019-05-13T22:55:11.475Z,45.80
2019-05-13T22:57:44.566Z,46.10
2019-05-13T23:00:17.992Z,45.10
2019-05-13T23:02:52.759Z,45.20
2019-05-13T23:05:25.610Z,46.20
2019-05-13T23:07:58.562Z,46.10
2019-05-13T23:10:32.399Z,46.20
2019-05-13T23:13:05.267Z,46.20
2019-05-13T23:15:38.088Z,46.20
2019-05-13T23:18:11.782Z,46.80
2019-05-13T23:20:44.727Z,47.80
2019-05-13T23:23:17.589Z,47.60
2019-05-13T23:25:50.464Z,47.40
2019-05-13T23:28:23.276Z,47.20
2019-05-13T23:30:56.106Z,47.20
2019-05-13T23:33:31.218Z,47.10
2019-05-13T23:36:04.046Z,47.80
2019-05-13T23:38:36.883Z,48.90
2019-05-13T23:41:11.421Z,49.30
2019-05-13T23:43:44.473Z,49.80
2019-05-13T23:46:17.277Z,50.30
2019-05-13T23:48:51.974Z,50.00
2019-05-13T23:51:24.811Z,49.70
2019-05-13T23:53:57.647Z,50.00
2019-05-13T23:56:31.107Z,49.30
2019-05-13T23:59:04.148Z,50.20
